Time;durP1;ratioP1;P1;durP2;ratioP2;P2;SDS_P1;SDS_P2;PMS_P1;PMS_P2;Temp;Humidity;BMP_temperature;BMP_pressure;BME280_temperature;BME280_humidity;BME280_pressure;Samples;Min_cycle;Max_cycle;Signal;HPM_P1;HPM_P2
2021/12/23 00:00:40;;;;;;;11.73;9.67;;;0.10;99.90;;;;;;5011547;28;20464;-71
2021/12/23 00:03:07;;;;;;;12.43;10.23;;;0.10;99.90;;;;;;5011098;28;20235;-71
2021/12/23 00:05:34;;;;;;;10.70;9.30;;;0.10;99.90;;;;;;5011471;28;20236;-70
2021/12/23 00:08:01;;;;;;;13.77;10.47;;;0.00;99.90;;;;;;5011112;28;20236;-71
2021/12/23 00:10:27;;;;;;;12.83;9.97;;;0.00;99.90;;;;;;5010985;28;20201;-70
2021/12/23 00:12:54;;;;;;;12.70;9.73;;;0.00;99.90;;;;;;5011395;28;20555;-71
2021/12/23 00:15:29;;;;;;;11.80;10.13;;;0.00;99.90;;;;;;5011347;28;20249;-71
2021/12/23 00:18:00;;;;;;;13.27;9.93;;;0.00;99.90;;;;;;5011267;28;20627;-72
2021/12/23 00:23:26;;;;;;;11.33;9.30;;;0.00;99.90;;;;;;5010963;28;20706;-71
2021/12/23 00:26:21;;;;;;;12.00;9.33;;;0.00;99.90;;;;;;5011051;28;20244;-71
2021/12/23 00:28:47;;;;;;;11.60;9.53;;;0.00;99.90;;;;;;5010498;28;20209;-71
2021/12/23 00:31:17;;;;;;;13.50;9.93;;;0.00;99.90;;;;;;5010569;28;20720;-71
2021/12/23 00:33:44;;;;;;;11.83;9.40;;;0.00;99.90;;;;;;5010437;28;20205;-71
2021/12/23 00:36:12;;;;;;;11.80;9.70;;;0.00;99.90;;;;;;5011137;28;20283;-71
2021/12/23 00:38:44;;;;;;;13.13;9.27;;;0.00;99.90;;;;;;5014301;28;20216;-70
2021/12/23 00:41:10;;;;;;;12.53;10.23;;;0.00;99.90;;;;;;5028645;28;20639;-70
2021/12/23 00:43:38;;;;;;;13.57;9.83;;;0.00;99.90;;;;;;5030353;28;20323;-70
2021/12/23 00:46:07;;;;;;;10.57;9.27;;;0.00;99.90;;;;;;5030696;28;20239;-71
2021/12/23 00:48:36;;;;;;;13.47;9.77;;;-0.10;99.90;;;;;;5030664;28;20204;-71
2021/12/23 00:51:06;;;;;;;12.50;8.90;;;-0.10;99.90;;;;;;5030589;28;20223;-71
2021/12/23 00:53:37;;;;;;;10.10;8.60;;;-0.10;99.90;;;;;;5030507;28;20209;-71
2021/12/23 00:56:10;;;;;;;11.67;9.13;;;-0.10;99.90;;;;;;5029249;28;20248;-71
2021/12/23 00:58:37;;;;;;;12.63;9.50;;;-0.10;99.90;;;;;;5030175;28;20219;-71
2021/12/23 01:01:06;;;;;;;13.87;9.87;;;-0.10;99.90;;;;;;5030092;28;20201;-71
2021/12/23 01:03:35;;;;;;;11.73;9.37;;;-0.10;99.90;;;;;;5030218;28;20204;-71
2021/12/23 01:06:06;;;;;;;12.93;9.83;;;-0.10;99.90;;;;;;5029752;28;21093;-70
2021/12/23 01:08:33;;;;;;;13.03;9.80;;;-0.10;99.90;;;;;;5029996;28;20236;-71
2021/12/23 01:11:00;;;;;;;12.30;9.33;;;-0.10;99.90;;;;;;5030001;28;20227;-71
2021/12/23 01:13:29;;;;;;;11.73;9.20;;;-0.20;99.90;;;;;;5029958;28;20298;-71
2021/12/23 01:16:02;;;;;;;11.70;9.33;;;-0.20;99.90;;;;;;5029973;28;20211;-71
2021/12/23 01:18:37;;;;;;;14.37;9.90;;;-0.20;99.90;;;;;;5030054;28;20250;-71
2021/12/23 01:21:16;;;;;;;13.03;10.13;;;-0.20;99.90;;;;;;5029913;28;20200;-72
2021/12/23 01:23:47;;;;;;;13.00;10.10;;;-0.20;99.90;;;;;;5029862;28;20290;-72
2021/12/23 01:26:19;;;;;;;12.20;9.43;;;-0.20;99.90;;;;;;5029936;28;20239;-71
2021/12/23 01:28:47;;;;;;;12.93;9.60;;;-0.30;99.90;;;;;;5029619;28;20193;-72
2021/12/23 01:31:13;;;;;;;12.23;9.63;;;-0.30;99.90;;;;;;5029583;28;20740;-71
2021/12/23 01:33:40;;;;;;;12.13;10.23;;;-0.30;99.90;;;;;;5029610;28;20207;-71
2021/12/23 01:36:08;;;;;;;12.83;10.43;;;-0.20;99.90;;;;;;5029816;28;20212;-71
2021/12/23 01:38:35;;;;;;;11.27;9.70;;;-0.30;99.90;;;;;;5029825;28;20278;-71
2021/12/23 01:41:05;;;;;;;13.73;10.10;;;-0.30;99.90;;;;;;5029657;28;20216;-71
2021/12/23 01:43:32;;;;;;;12.87;10.20;;;-0.30;99.90;;;;;;5029533;28;20285;-71
2021/12/23 01:45:58;;;;;;;14.10;10.37;;;-0.30;99.90;;;;;;5029301;28;20267;-70
2021/12/23 01:48:25;;;;;;;14.60;9.30;;;-0.30;99.90;;;;;;5029485;28;20212;-71
2021/12/23 01:50:52;;;;;;;11.97;8.80;;;-0.30;99.90;;;;;;5029295;28;20595;-71
2021/12/23 01:53:21;;;;;;;12.70;9.90;;;-0.30;99.90;;;;;;5029198;28;20207;-69
2021/12/23 01:55:48;;;;;;;12.80;9.43;;;-0.20;99.90;;;;;;5028622;28;20243;-69
2021/12/23 01:58:15;;;;;;;13.27;10.30;;;-0.30;99.90;;;;;;5029044;28;20301;-69
2021/12/23 02:00:45;;;;;;;14.00;10.33;;;-0.30;99.90;;;;;;5028886;28;20630;-69
2021/12/23 02:03:12;;;;;;;11.77;9.33;;;-0.30;99.90;;;;;;5029146;28;20207;-69
2021/12/23 02:05:39;;;;;;;11.33;9.60;;;-0.30;99.90;;;;;;5028974;28;20208;-70
2021/12/23 02:08:07;;;;;;;10.63;9.20;;;-0.30;99.90;;;;;;5027933;28;20228;-69
2021/12/23 02:10:35;;;;;;;12.73;9.30;;;-0.30;99.90;;;;;;5029061;28;20617;-71
2021/12/23 02:13:02;;;;;;;11.43;8.80;;;-0.30;99.90;;;;;;5028380;28;20650;-70
2021/12/23 02:15:29;;;;;;;13.70;9.87;;;-0.30;99.90;;;;;;5028378;28;20712;-69
2021/12/23 02:17:56;;;;;;;12.23;10.03;;;-0.30;99.90;;;;;;5028706;28;20207;-70
2021/12/23 02:20:28;;;;;;;11.30;9.37;;;-0.30;99.90;;;;;;5028573;28;20244;-70
2021/12/23 02:22:55;;;;;;;11.97;9.27;;;-0.30;99.90;;;;;;5028629;28;20200;-70
2021/12/23 02:25:22;;;;;;;11.63;9.33;;;-0.30;99.90;;;;;;5028302;28;20882;-70
2021/12/23 02:27:49;;;;;;;13.50;9.70;;;-0.30;99.90;;;;;;5028326;28;20290;-70
2021/12/23 02:30:18;;;;;;;13.33;9.83;;;-0.30;99.90;;;;;;5028573;28;20212;-70
2021/12/23 02:32:47;;;;;;;10.57;9.30;;;-0.30;99.90;;;;;;5027950;28;20613;-70
2021/12/23 02:35:16;;;;;;;9.63;8.63;;;-0.30;99.90;;;;;;5028530;28;20212;-70
2021/12/23 02:37:47;;;;;;;11.97;9.37;;;-0.20;99.90;;;;;;5028260;28;20621;-70
2021/12/23 02:40:28;;;;;;;10.93;9.50;;;-0.20;99.90;;;;;;5028256;28;20235;-69
2021/12/23 02:42:56;;;;;;;11.20;9.30;;;-0.20;99.90;;;;;;5028080;28;20231;-70
2021/12/23 02:45:22;;;;;;;10.47;9.33;;;-0.20;99.90;;;;;;5028339;28;20258;-70
2021/12/23 02:47:49;;;;;;;11.87;9.10;;;-0.20;99.90;;;;;;5027833;28;20713;-70
2021/12/23 02:50:16;;;;;;;9.93;8.87;;;-0.20;99.90;;;;;;5028353;28;20235;-70
2021/12/23 02:52:42;;;;;;;13.37;9.33;;;-0.30;99.90;;;;;;5028216;28;20223;-70
2021/12/23 02:55:11;;;;;;;12.50;9.60;;;-0.30;99.90;;;;;;5027982;28;20235;-71
2021/12/23 02:57:37;;;;;;;11.87;9.23;;;-0.30;99.90;;;;;;5028319;28;20555;-70
2021/12/23 03:00:07;;;;;;;11.83;9.67;;;-0.30;99.90;;;;;;5027861;28;20305;-70
2021/12/23 03:02:34;;;;;;;12.63;10.37;;;-0.30;99.90;;;;;;5028436;28;20212;-70
2021/12/23 03:05:00;;;;;;;12.30;9.40;;;-0.30;99.90;;;;;;5028110;28;20290;-70
2021/12/23 03:07:27;;;;;;;13.50;10.03;;;-0.40;99.90;;;;;;5028156;28;20601;-70
2021/12/23 03:09:54;;;;;;;11.57;9.63;;;-0.30;99.90;;;;;;5028036;28;20278;-71
2021/12/23 03:12:22;;;;;;;12.27;10.10;;;-0.30;99.90;;;;;;5028042;28;20203;-70
2021/12/23 03:14:49;;;;;;;14.00;10.03;;;-0.30;99.90;;;;;;5027552;28;20612;-71
2021/12/23 03:17:15;;;;;;;10.63;9.50;;;-0.30;99.90;;;;;;5028129;28;20211;-70
2021/12/23 03:19:42;;;;;;;11.23;9.27;;;-0.30;99.90;;;;;;5028913;28;20480;-71
2021/12/23 03:22:09;;;;;;;13.57;10.17;;;-0.30;99.90;;;;;;5032322;28;20241;-70
2021/12/23 03:24:35;;;;;;;10.47;9.37;;;-0.30;99.90;;;;;;5032117;28;20262;-70
2021/12/23 03:27:02;;;;;;;11.13;9.93;;;-0.40;99.90;;;;;;5031859;28;20236;-70
2021/12/23 03:29:30;;;;;;;12.87;9.80;;;-0.40;99.90;;;;;;5032050;28;20294;-70
2021/12/23 03:31:57;;;;;;;13.07;9.50;;;-0.40;99.90;;;;;;5032134;28;20262;-70
2021/12/23 03:34:24;;;;;;;11.83;9.30;;;-0.30;99.90;;;;;;5031877;28;20212;-70
2021/12/23 03:36:50;;;;;;;11.87;9.30;;;-0.30;99.90;;;;;;5031691;28;20208;-70
2021/12/23 03:39:19;;;;;;;13.00;10.17;;;-0.40;99.90;;;;;;5031732;28;20205;-70
2021/12/23 03:41:46;;;;;;;12.20;10.13;;;-0.40;99.90;;;;;;5031576;28;20323;-70
2021/12/23 03:44:12;;;;;;;13.53;10.40;;;-0.50;99.90;;;;;;5031629;28;20216;-70
2021/12/23 03:46:40;;;;;;;10.70;9.57;;;-0.50;99.90;;;;;;5031606;28;20229;-70
2021/12/23 03:49:07;;;;;;;11.13;9.17;;;-0.40;99.90;;;;;;5031491;28;20305;-70
2021/12/23 03:51:34;;;;;;;12.77;10.50;;;-0.40;99.90;;;;;;5031667;28;20209;-70
2021/12/23 03:54:01;;;;;;;11.63;10.13;;;-0.40;99.90;;;;;;5031522;28;20219;-69
2021/12/23 03:56:28;;;;;;;12.50;9.83;;;-0.40;99.90;;;;;;5030990;28;20252;-69
2021/12/23 03:58:55;;;;;;;14.40;10.20;;;-0.40;99.90;;;;;;5030852;28;20684;-69
2021/12/23 04:01:23;;;;;;;14.13;9.73;;;-0.40;99.90;;;;;;5031306;28;20258;-69
2021/12/23 04:03:53;;;;;;;10.53;9.43;;;-0.40;99.90;;;;;;5030993;28;20224;-69
2021/12/23 04:06:20;;;;;;;13.47;10.27;;;-0.40;99.90;;;;;;5031143;28;20274;-69
2021/12/23 04:08:46;;;;;;;13.13;9.77;;;-0.40;99.90;;;;;;5031238;28;20200;-69
2021/12/23 04:11:14;;;;;;;13.40;10.67;;;-0.40;99.90;;;;;;5031169;28;20259;-69
2021/12/23 04:13:40;;;;;;;13.37;10.70;;;-0.40;99.90;;;;;;5031167;28;20212;-69
2021/12/23 04:16:07;;;;;;;13.97;11.03;;;-0.40;99.90;;;;;;5031219;28;20242;-70
2021/12/23 04:18:35;;;;;;;13.43;10.43;;;-0.40;99.90;;;;;;5031185;28;20213;-70
2021/12/23 04:21:05;;;;;;;14.03;10.07;;;-0.50;99.90;;;;;;5031377;28;20274;-70
2021/12/23 04:23:33;;;;;;;15.73;11.30;;;-0.50;99.90;;;;;;5031111;28;21051;-70
2021/12/23 04:26:01;;;;;;;12.53;10.30;;;-0.40;99.90;;;;;;5030968;28;20318;-70
2021/12/23 04:28:27;;;;;;;11.97;9.70;;;-0.40;99.90;;;;;;5030693;28;20294;-70
2021/12/23 04:30:54;;;;;;;12.97;10.80;;;-0.40;99.90;;;;;;5030239;28;20222;-70
2021/12/23 04:33:21;;;;;;;13.73;10.47;;;-0.40;99.90;;;;;;5030632;28;20213;-70
2021/12/23 04:35:48;;;;;;;16.00;11.00;;;-0.40;99.90;;;;;;5030672;28;20234;-70
2021/12/23 04:38:16;;;;;;;14.37;10.90;;;-0.40;99.90;;;;;;5030880;28;20227;-70
2021/12/23 04:40:43;;;;;;;12.97;10.40;;;-0.40;99.90;;;;;;5030562;28;20824;-70
2021/12/23 04:43:09;;;;;;;11.83;9.97;;;-0.30;99.90;;;;;;5030632;28;20208;-70
2021/12/23 04:45:36;;;;;;;13.27;11.10;;;-0.40;99.90;;;;;;5030870;28;20286;-70
2021/12/23 04:48:03;;;;;;;13.70;10.20;;;-0.40;99.90;;;;;;5030374;28;20321;-71
2021/12/23 04:50:30;;;;;;;14.33;10.37;;;-0.40;99.90;;;;;;5030736;28;20208;-71
2021/12/23 04:52:56;;;;;;;14.57;10.97;;;-0.30;99.90;;;;;;5030198;28;20659;-70
2021/12/23 04:55:25;;;;;;;13.97;10.77;;;-0.40;99.90;;;;;;5030127;28;20244;-71
2021/12/23 04:57:52;;;;;;;13.17;10.97;;;-0.40;99.90;;;;;;5030147;28;20567;-71
2021/12/23 05:00:22;;;;;;;14.70;11.13;;;-0.40;99.90;;;;;;5030608;28;20204;-71
2021/12/23 05:02:49;;;;;;;14.37;10.13;;;-0.40;99.90;;;;;;5030265;28;20305;-70
2021/12/23 05:05:16;;;;;;;13.00;10.73;;;-0.30;99.90;;;;;;5030277;28;20208;-70
2021/12/23 05:07:43;;;;;;;13.73;11.00;;;-0.30;99.90;;;;;;5030203;28;20290;-71
2021/12/23 05:10:12;;;;;;;14.93;10.73;;;-0.30;99.90;;;;;;5030332;28;20238;-70
2021/12/23 05:12:43;;;;;;;13.50;10.60;;;-0.40;99.90;;;;;;5030092;28;20208;-70
2021/12/23 05:15:11;;;;;;;14.47;10.60;;;-0.40;99.90;;;;;;5030124;28;20254;-69
2021/12/23 05:17:38;;;;;;;13.87;9.87;;;-0.40;99.90;;;;;;5029866;28;20203;-69
2021/12/23 05:20:06;;;;;;;14.83;10.90;;;-0.40;99.90;;;;;;5029772;28;20234;-69
2021/12/23 05:22:32;;;;;;;14.47;10.77;;;-0.40;99.90;;;;;;5029563;28;20208;-70
2021/12/23 05:24:59;;;;;;;13.60;10.50;;;-0.40;99.90;;;;;;5029774;28;20275;-69
2021/12/23 05:27:26;;;;;;;13.67;11.07;;;-0.40;99.90;;;;;;5029738;28;20235;-70
2021/12/23 05:29:54;;;;;;;13.50;10.80;;;-0.40;99.90;;;;;;5029864;28;20204;-70
2021/12/23 05:32:20;;;;;;;16.80;11.13;;;-0.40;99.90;;;;;;5029945;28;20208;-70
2021/12/23 05:34:47;;;;;;;14.83;10.90;;;-0.40;99.90;;;;;;5029893;28;20262;-70
2021/12/23 05:37:14;;;;;;;13.10;10.20;;;-0.40;99.90;;;;;;5029701;28;20220;-70
2021/12/23 05:39:41;;;;;;;13.70;10.50;;;-0.40;99.90;;;;;;5029772;28;20206;-70
2021/12/23 05:42:07;;;;;;;15.17;11.60;;;-0.40;99.90;;;;;;5029372;28;20294;-70
2021/12/23 05:44:34;;;;;;;13.63;10.60;;;-0.40;99.90;;;;;;5029023;28;20733;-70
2021/12/23 05:47:02;;;;;;;14.03;10.80;;;-0.30;99.90;;;;;;5029135;28;20294;-69
2021/12/23 05:49:29;;;;;;;14.50;11.30;;;-0.40;99.90;;;;;;5029259;28;20548;-69
2021/12/23 05:51:56;;;;;;;16.33;11.57;;;-0.40;99.90;;;;;;5029227;28;20208;-70
2021/12/23 05:54:23;;;;;;;15.40;11.60;;;-0.40;99.90;;;;;;5029264;28;20621;-69
2021/12/23 05:56:50;;;;;;;13.83;10.37;;;-0.30;99.90;;;;;;5028528;28;20570;-69
2021/12/23 05:59:16;;;;;;;13.93;10.63;;;-0.40;99.90;;;;;;5029295;28;20265;-70
2021/12/23 06:01:43;;;;;;;15.67;11.63;;;-0.40;99.90;;;;;;5028839;28;20691;-70
2021/12/23 06:04:11;;;;;;;14.50;11.47;;;-0.40;99.90;;;;;;5029017;28;20281;-70
2021/12/23 06:06:37;;;;;;;16.60;11.63;;;-0.40;99.90;;;;;;5029011;28;20227;-71
2021/12/23 06:09:04;;;;;;;15.27;11.60;;;-0.40;99.90;;;;;;5028705;28;20313;-71
2021/12/23 06:11:31;;;;;;;14.43;11.33;;;-0.40;99.90;;;;;;5028920;28;20829;-71
2021/12/23 06:13:57;;;;;;;15.67;11.43;;;-0.40;99.90;;;;;;5028857;28;20211;-70
2021/12/23 06:16:24;;;;;;;16.20;11.50;;;-0.40;99.90;;;;;;5028824;28;20216;-70
2021/12/23 06:18:50;;;;;;;14.93;10.90;;;-0.40;99.90;;;;;;5028492;28;20667;-70
2021/12/23 06:21:19;;;;;;;16.43;11.17;;;-0.40;99.90;;;;;;5028644;28;20212;-69
2021/12/23 06:23:45;;;;;;;15.77;11.67;;;-0.30;99.90;;;;;;5028588;28;20219;-69
2021/12/23 06:26:12;;;;;;;14.77;10.67;;;-0.40;99.90;;;;;;5028772;28;20212;-70
2021/12/23 06:28:39;;;;;;;14.17;11.40;;;-0.30;99.90;;;;;;5028157;28;20746;-69
2021/12/23 06:31:07;;;;;;;16.07;11.60;;;-0.30;99.90;;;;;;5028386;28;20208;-69
2021/12/23 06:33:34;;;;;;;15.23;11.47;;;-0.30;99.90;;;;;;5028673;28;20232;-70
2021/12/23 06:36:05;;;;;;;17.83;11.47;;;-0.30;99.90;;;;;;5028566;28;20262;-70
2021/12/23 06:38:35;;;;;;;16.93;12.03;;;-0.30;99.90;;;;;;5028298;28;20640;-70
2021/12/23 06:41:04;;;;;;;19.53;13.13;;;-0.30;99.90;;;;;;5028244;28;20229;-70
2021/12/23 06:43:30;;;;;;;16.83;13.00;;;-0.30;99.90;;;;;;5028209;28;20291;-70
2021/12/23 06:45:57;;;;;;;18.47;13.13;;;-0.30;99.90;;;;;;5028357;28;20212;-70
2021/12/23 06:48:24;;;;;;;17.03;12.23;;;-0.30;99.90;;;;;;5028344;28;20232;-70
2021/12/23 06:50:54;;;;;;;19.03;12.50;;;-0.30;99.90;;;;;;5028349;28;20263;-69
2021/12/23 06:53:20;;;;;;;17.53;12.40;;;-0.30;99.90;;;;;;5028514;28;20207;-70
2021/12/23 06:55:50;;;;;;;17.17;12.50;;;-0.30;99.90;;;;;;5027450;28;20243;-70
2021/12/23 06:58:17;;;;;;;17.63;11.90;;;-0.30;99.90;;;;;;5028405;28;20208;-70
2021/12/23 07:00:44;;;;;;;17.20;11.77;;;-0.30;99.90;;;;;;5028198;28;20281;-70
2021/12/23 07:03:10;;;;;;;16.73;12.17;;;-0.30;99.90;;;;;;5028237;28;20345;-70
2021/12/23 07:05:37;;;;;;;15.00;11.33;;;-0.30;99.90;;;;;;5028137;28;20224;-70
2021/12/23 07:08:09;;;;;;;16.83;11.97;;;-0.30;99.90;;;;;;5027939;28;20232;-70
2021/12/23 07:10:36;;;;;;;14.93;11.73;;;-0.30;99.90;;;;;;5028334;28;20204;-70
2021/12/23 07:13:05;;;;;;;19.17;12.57;;;-0.20;99.90;;;;;;5027760;28;20674;-70
2021/12/23 07:15:33;;;;;;;15.07;11.87;;;-0.20;99.90;;;;;;5027990;28;20735;-70
2021/12/23 07:18:01;;;;;;;15.10;11.40;;;-0.20;99.90;;;;;;5027909;28;20215;-70
2021/12/23 07:20:29;;;;;;;15.17;11.50;;;-0.20;99.90;;;;;;5028000;28;20212;-70
2021/12/23 07:22:56;;;;;;;16.93;11.77;;;-0.20;99.90;;;;;;5027950;28;20216;-69
2021/12/23 07:25:23;;;;;;;17.97;11.63;;;-0.20;99.90;;;;;;5027846;28;20396;-69
2021/12/23 07:27:49;;;;;;;16.83;11.80;;;-0.20;99.90;;;;;;5027657;28;20240;-71
2021/12/23 07:30:19;;;;;;;15.60;11.73;;;-0.20;99.90;;;;;;5028071;28;20207;-71
2021/12/23 07:32:46;;;;;;;14.10;11.73;;;-0.20;99.90;;;;;;5028032;28;20219;-71
2021/12/23 07:35:13;;;;;;;16.60;12.57;;;-0.20;99.90;;;;;;5027928;28;20290;-71
2021/12/23 07:37:40;;;;;;;17.57;12.70;;;-0.20;99.90;;;;;;5027859;28;20216;-70
2021/12/23 07:40:08;;;;;;;16.03;12.03;;;-0.20;99.90;;;;;;5027458;28;20718;-70
2021/12/23 07:42:36;;;;;;;17.20;12.03;;;-0.20;99.90;;;;;;5027860;28;20223;-70
2021/12/23 07:45:05;;;;;;;15.70;11.90;;;-0.20;99.90;;;;;;5027688;28;20212;-70
2021/12/23 07:47:33;;;;;;;18.27;12.63;;;-0.20;99.90;;;;;;5027839;28;20209;-70
2021/12/23 07:49:59;;;;;;;16.00;11.63;;;-0.20;99.90;;;;;;5027783;28;20620;-70
2021/12/23 07:52:26;;;;;;;15.87;11.97;;;-0.20;99.90;;;;;;5027999;28;20215;-69
2021/12/23 07:54:53;;;;;;;15.70;11.63;;;-0.20;99.90;;;;;;5027286;28;20591;-69
2021/12/23 07:57:20;;;;;;;17.37;12.53;;;-0.20;99.90;;;;;;5027300;28;20662;-69
2021/12/23 07:59:46;;;;;;;16.37;11.43;;;-0.20;99.90;;;;;;5027661;28;20232;-69
2021/12/23 08:02:13;;;;;;;15.67;11.63;;;-0.20;99.90;;;;;;5027572;28;20274;-69
2021/12/23 08:04:41;;;;;;;16.30;11.47;;;-0.20;99.90;;;;;;5027417;28;20741;-69
2021/12/23 08:07:07;;;;;;;14.17;11.27;;;-0.20;99.90;;;;;;5028935;28;20688;-69
2021/12/23 08:09:34;;;;;;;14.77;11.20;;;-0.20;99.90;;;;;;5031365;28;20290;-69
2021/12/23 08:12:05;;;;;;;18.60;11.90;;;-0.20;99.90;;;;;;5031067;28;20208;-71
2021/12/23 08:14:32;;;;;;;17.17;11.53;;;-0.20;99.90;;;;;;5031449;28;20205;-71
2021/12/23 08:16:59;;;;;;;16.13;11.30;;;-0.10;99.90;;;;;;5031292;28;20212;-71
2021/12/23 08:19:25;;;;;;;13.80;10.50;;;-0.10;99.90;;;;;;5031220;28;20282;-71
2021/12/23 08:21:53;;;;;;;13.57;10.97;;;-0.10;99.90;;;;;;5031122;28;20265;-71
2021/12/23 08:24:20;;;;;;;16.73;11.73;;;-0.10;99.90;;;;;;5030926;28;20645;-71
2021/12/23 08:26:51;;;;;;;14.63;11.47;;;-0.10;99.90;;;;;;5031206;28;20261;-71
2021/12/23 08:29:19;;;;;;;15.17;11.20;;;-0.10;99.90;;;;;;5030750;28;20219;-71
2021/12/23 08:31:46;;;;;;;16.90;11.93;;;-0.10;99.90;;;;;;5030652;28;20663;-71
2021/12/23 08:34:12;;;;;;;14.33;11.27;;;-0.10;99.90;;;;;;5030981;28;20212;-71
2021/12/23 08:36:39;;;;;;;16.67;12.47;;;-0.10;99.90;;;;;;5030968;28;20212;-71
2021/12/23 08:39:07;;;;;;;14.63;11.03;;;-0.10;99.90;;;;;;5030799;28;20605;-71
2021/12/23 08:41:33;;;;;;;14.63;10.87;;;-0.10;99.90;;;;;;5030906;28;20234;-71
2021/12/23 08:44:00;;;;;;;15.10;10.97;;;-0.10;99.90;;;;;;5030470;28;20663;-71
2021/12/23 08:46:27;;;;;;;14.27;10.63;;;-0.10;99.90;;;;;;5030792;28;20258;-70
2021/12/23 08:48:53;;;;;;;12.83;10.03;;;-0.10;99.90;;;;;;5030377;28;20260;-71
2021/12/23 08:51:20;;;;;;;15.67;11.10;;;-0.10;99.90;;;;;;5030665;28;20208;-69
2021/12/23 08:53:46;;;;;;;15.37;11.33;;;-0.10;99.90;;;;;;5030195;28;20277;-70
2021/12/23 08:56:14;;;;;;;15.70;11.43;;;-0.10;99.90;;;;;;5030106;28;20256;-70
2021/12/23 08:58:43;;;;;;;18.47;11.63;;;-0.10;99.90;;;;;;5029918;28;20671;-70
2021/12/23 09:01:11;;;;;;;17.53;11.77;;;0.00;99.90;;;;;;5030247;28;20207;-70
2021/12/23 09:03:38;;;;;;;14.90;10.90;;;0.00;99.90;;;;;;5030143;28;20235;-70
2021/12/23 09:06:08;;;;;;;14.00;10.57;;;0.00;99.90;;;;;;5030028;28;20225;-70
2021/12/23 09:08:36;;;;;;;16.53;11.83;;;0.00;99.90;;;;;;5029969;28;21145;-69
2021/12/23 09:11:06;;;;;;;15.07;11.17;;;-0.10;99.90;;;;;;5030021;28;20302;-70
2021/12/23 09:13:35;;;;;;;14.83;10.53;;;0.00;99.90;;;;;;5030032;28;20258;-69
2021/12/23 09:16:04;;;;;;;14.33;10.87;;;0.00;99.90;;;;;;5029638;28;20212;-70
2021/12/23 09:18:31;;;;;;;15.30;10.80;;;0.10;99.90;;;;;;5029450;28;20579;-69
2021/12/23 09:20:58;;;;;;;13.10;10.40;;;0.10;99.90;;;;;;5029732;28;20882;-70
2021/12/23 09:23:25;;;;;;;14.87;11.13;;;0.10;99.90;;;;;;5030002;28;20305;-71
2021/12/23 09:25:53;;;;;;;14.47;10.37;;;0.10;99.90;;;;;;5030101;28;20209;-74
2021/12/23 09:28:28;;;;;;;13.43;10.60;;;0.10;99.90;;;;;;5029247;28;20849;-69
2021/12/23 09:33:43;;;;;;;12.90;11.00;;;0.10;99.90;;;;;;5029461;28;20192;-70
2021/12/23 09:36:10;;;;;;;13.13;9.93;;;0.10;99.90;;;;;;5029783;28;20219;-70
2021/12/23 09:38:37;;;;;;;13.13;10.10;;;0.20;99.90;;;;;;5029567;28;20224;-70
2021/12/23 09:41:09;;;;;;;13.30;10.83;;;0.20;99.90;;;;;;5007902;28;20277;-70
2021/12/23 09:43:39;;;;;;;11.67;9.90;;;0.20;99.90;;;;;;5005867;28;20244;-70
2021/12/23 09:46:09;;;;;;;14.80;10.00;;;0.20;99.90;;;;;;5005955;28;20214;-70
2021/12/23 09:48:38;;;;;;;10.83;9.63;;;0.20;99.90;;;;;;5005732;28;20290;-70
2021/12/23 09:51:07;;;;;;;11.47;9.57;;;0.20;99.90;;;;;;5005674;28;20209;-70
2021/12/23 09:53:36;;;;;;;12.90;9.87;;;0.30;99.90;;;;;;5006114;28;20209;-70
2021/12/23 09:56:06;;;;;;;12.10;9.30;;;0.30;99.90;;;;;;5005661;28;20252;-71
2021/12/23 09:58:33;;;;;;;11.97;9.50;;;0.30;99.90;;;;;;5005654;28;20220;-71
2021/12/23 10:01:00;;;;;;;12.03;9.57;;;0.40;99.90;;;;;;5005853;28;20241;-71
2021/12/23 10:03:30;;;;;;;14.23;10.00;;;0.50;99.90;;;;;;5005678;28;20237;-70
2021/12/23 10:05:59;;;;;;;13.63;9.37;;;0.50;99.90;;;;;;5005977;28;20274;-70
2021/12/23 10:08:26;;;;;;;11.40;9.13;;;0.40;99.90;;;;;;5005671;28;20240;-76
2021/12/23 10:10:57;;;;;;;11.50;9.13;;;0.40;99.90;;;;;;5006252;28;20316;-70
2021/12/23 10:33:07;;;;;;;11.90;8.80;;;0.50;99.90;;;;;;5028225;28;20197;-70
2021/12/23 10:38:26;;;;;;;10.90;8.83;;;0.60;99.90;;;;;;5028350;28;20571;-71
2021/12/23 10:40:56;;;;;;;12.23;8.50;;;0.60;99.90;;;;;;5028360;28;20227;-71
2021/12/23 10:43:27;;;;;;;12.03;8.43;;;0.60;99.90;;;;;;5028611;28;20251;-71
2021/12/23 10:45:57;;;;;;;10.23;8.20;;;0.60;99.90;;;;;;5028674;28;20196;-70
2021/12/23 10:48:26;;;;;;;10.03;8.40;;;0.60;99.90;;;;;;5028273;28;20211;-71
2021/12/23 10:51:00;;;;;;;10.77;8.67;;;0.60;99.90;;;;;;5028121;28;20294;-71
2021/12/23 10:59:16;;;;;;;9.40;8.17;;;0.70;99.90;;;;;;5027956;28;20195;-71
2021/12/23 11:02:17;;;;;;;10.47;8.30;;;0.70;99.90;;;;;;5028093;28;20232;-71
2021/12/23 11:05:07;;;;;;;11.70;8.40;;;0.70;99.90;;;;;;5027669;28;20665;-71
2021/12/23 11:07:57;;;;;;;9.53;7.97;;;0.70;99.90;;;;;;5028109;28;20200;-71
2021/12/23 11:10:51;;;;;;;11.70;8.73;;;0.70;99.90;;;;;;5028118;28;20561;-71
2021/12/23 11:27:33;;;;;;;9.20;7.60;;;0.70;99.90;;;;;;5027842;28;20285;-71
2021/12/23 11:39:05;;;;;;;10.37;7.57;;;0.70;99.90;;;;;;5085559;27;20677;-70
2021/12/23 11:41:35;;;;;;;9.37;7.57;;;0.70;99.90;;;;;;5065491;28;20210;-70
2021/12/23 11:44:04;;;;;;;10.00;8.23;;;0.60;99.90;;;;;;5065302;28;20253;-70
2021/12/23 11:46:40;;;;;;;10.17;8.07;;;0.60;99.90;;;;;;5065371;28;20207;-70
2021/12/23 11:49:09;;;;;;;8.63;7.70;;;0.70;99.90;;;;;;5065473;28;20256;-70
2021/12/23 11:51:46;;;;;;;9.07;7.83;;;0.70;99.90;;;;;;5064977;28;20222;-70
2021/12/23 11:54:16;;;;;;;11.47;8.37;;;0.70;99.90;;;;;;5064154;28;20195;-70
2021/12/23 11:56:47;;;;;;;11.37;7.83;;;0.80;99.90;;;;;;5065183;28;20274;-70
2021/12/23 11:59:16;;;;;;;9.53;8.03;;;0.80;99.90;;;;;;5062068;28;20203;-68
2021/12/23 12:01:45;;;;;;;9.37;7.70;;;0.90;99.90;;;;;;5062477;28;20343;-68
2021/12/23 12:04:13;;;;;;;9.27;8.00;;;1.00;99.90;;;;;;5062801;28;20238;-69
2021/12/23 12:06:43;;;;;;;12.10;7.93;;;1.20;99.90;;;;;;5062243;28;20697;-70
2021/12/23 12:09:16;;;;;;;8.70;7.80;;;1.20;99.90;;;;;;5062420;28;20236;-70
2021/12/23 12:11:49;;;;;;;12.90;8.17;;;1.20;99.90;;;;;;5062901;28;20195;-70
2021/12/23 12:14:45;;;;;;;9.00;7.70;;;1.20;99.90;;;;;;5063440;28;20242;-70
2021/12/23 12:17:38;;;;;;;8.50;7.37;;;1.20;99.90;;;;;;5061373;28;20231;-70
2021/12/23 12:20:10;;;;;;;9.13;7.80;;;1.20;99.90;;;;;;5062281;28;20558;-70
2021/12/23 12:23:02;;;;;;;8.70;7.80;;;1.20;99.90;;;;;;5062335;28;20634;-70
2021/12/23 12:26:05;;;;;;;9.13;8.23;;;1.20;99.90;;;;;;5059769;28;20199;-70
2021/12/23 12:28:36;;;;;;;9.27;8.17;;;1.20;99.90;;;;;;5062114;28;20196;-70
2021/12/23 12:31:08;;;;;;;8.57;7.67;;;1.20;99.90;;;;;;5062170;28;20397;-70
2021/12/23 12:34:05;;;;;;;10.47;7.83;;;1.20;99.90;;;;;;5061864;28;20269;-70
2021/12/23 12:36:35;;;;;;;10.67;8.00;;;1.20;99.90;;;;;;5062157;28;20192;-70
2021/12/23 12:39:17;;;;;;;9.87;7.80;;;1.20;99.90;;;;;;5061882;28;20602;-70
2021/12/23 12:41:46;;;;;;;10.67;8.10;;;1.20;99.90;;;;;;5060542;28;20638;-70
2021/12/23 12:44:21;;;;;;;8.40;7.23;;;1.20;99.90;;;;;;5055816;28;20269;-70
2021/12/23 12:47:02;;;;;;;11.03;7.70;;;1.20;99.90;;;;;;5041911;28;20219;-70
2021/12/23 12:49:31;;;;;;;9.43;8.30;;;1.20;99.90;;;;;;5032248;28;20219;-70
2021/12/23 12:52:13;;;;;;;8.87;7.70;;;1.20;99.90;;;;;;5028802;28;20232;-70
2021/12/23 12:54:49;;;;;;;9.10;7.43;;;1.20;99.90;;;;;;5028974;28;20208;-68
2021/12/23 12:57:18;;;;;;;9.77;8.40;;;1.20;99.90;;;;;;5029014;28;20225;-68
2021/12/23 12:59:48;;;;;;;9.47;7.90;;;1.30;99.90;;;;;;5031498;28;20277;-70
2021/12/23 13:02:29;;;;;;;9.27;8.33;;;1.30;99.90;;;;;;5047953;28;20314;-70
2021/12/23 13:05:03;;;;;;;8.90;8.00;;;1.20;99.90;;;;;;5048391;28;20235;-70
2021/12/23 13:07:34;;;;;;;11.00;7.67;;;1.30;99.90;;;;;;5048133;28;20189;-70
2021/12/23 13:10:09;;;;;;;9.00;8.10;;;1.20;99.90;;;;;;5048000;28;20279;-70
2021/12/23 13:12:46;;;;;;;8.93;7.63;;;1.20;99.90;;;;;;5047947;28;20223;-70
2021/12/23 13:15:19;;;;;;;9.23;7.60;;;1.20;99.90;;;;;;5047696;28;20232;-70
2021/12/23 13:17:56;;;;;;;8.87;7.60;;;1.20;99.90;;;;;;5047518;28;20729;-70
2021/12/23 13:20:39;;;;;;;10.33;7.70;;;1.20;99.90;;;;;;5047811;28;20200;-70
2021/12/23 13:23:11;;;;;;;9.53;7.73;;;1.20;99.90;;;;;;5047852;28;20270;-70
2021/12/23 13:25:46;;;;;;;11.73;7.80;;;1.20;99.90;;;;;;5047891;28;20201;-70
2021/12/23 13:28:21;;;;;;;9.97;7.70;;;1.20;99.90;;;;;;5048007;28;20200;-70
2021/12/23 13:30:49;;;;;;;8.73;7.40;;;1.20;99.90;;;;;;5047518;28;20207;-70
2021/12/23 13:33:15;;;;;;;10.03;7.57;;;1.20;99.90;;;;;;5047901;28;20208;-70
2021/12/23 13:35:42;;;;;;;9.07;8.10;;;1.20;99.90;;;;;;5048328;28;20208;-70
2021/12/23 13:38:10;;;;;;;8.77;7.87;;;1.10;99.90;;;;;;5047744;28;20734;-70
2021/12/23 13:40:38;;;;;;;11.30;8.13;;;1.10;99.90;;;;;;5047447;28;20295;-70
2021/12/23 13:43:05;;;;;;;9.27;7.60;;;1.10;99.90;;;;;;5046938;28;20216;-70